sensor_id;sensor_type;location;lat;lon;timestamp;P1;durP1;ratioP1;P2;durP2;ratioP2
19747;SDS011;10032;51.386;12.516;2022-11-30T00:02:06;20.40;;;10.07;;
19747;SDS011;10032;51.386;12.516;2022-11-30T00:04:32;20.13;;;10.67;;
19747;SDS011;10032;51.386;12.516;2022-11-30T00:06:57;20.27;;;10.27;;
19747;SDS011;10032;51.386;12.516;2022-11-30T00:09:22;22.33;;;10.17;;
19747;SDS011;10032;51.386;12.516;2022-11-30T00:11:48;16.70;;;9.53;;
19747;SDS011;10032;51.386;12.516;2022-11-30T00:14:13;16.97;;;9.20;;
19747;SDS011;10032;51.386;12.516;2022-11-30T00:16:39;19.63;;;9.80;;
19747;SDS011;10032;51.386;12.516;2022-11-30T00:19:04;19.83;;;10.77;;
19747;SDS011;10032;51.386;12.516;2022-11-30T00:21:30;18.47;;;10.80;;
19747;SDS011;10032;51.386;12.516;2022-11-30T00:23:55;17.00;;;10.50;;
19747;SDS011;10032;51.386;12.516;2022-11-30T00:26:20;19.70;;;9.90;;
19747;SDS011;10032;51.386;12.516;2022-11-30T00:28:46;18.23;;;10.20;;
19747;SDS011;10032;51.386;12.516;2022-11-30T00:31:13;16.77;;;9.73;;
19747;SDS011;10032;51.386;12.516;2022-11-30T00:33:39;16.50;;;10.00;;
19747;SDS011;10032;51.386;12.516;2022-11-30T00:36:06;18.63;;;10.27;;
19747;SDS011;10032;51.386;12.516;2022-11-30T00:38:35;16.23;;;8.83;;
19747;SDS011;10032;51.386;12.516;2022-11-30T00:41:00;17.43;;;10.77;;
19747;SDS011;10032;51.386;12.516;2022-11-30T00:43:26;17.23;;;9.53;;
19747;SDS011;10032;51.386;12.516;2022-11-30T00:45:51;15.90;;;9.27;;
19747;SDS011;10032;51.386;12.516;2022-11-30T00:48:17;17.60;;;9.53;;
19747;SDS011;10032;51.386;12.516;2022-11-30T00:50:42;15.13;;;9.20;;
19747;SDS011;10032;51.386;12.516;2022-11-30T00:53:08;19.33;;;9.10;;
19747;SDS011;10032;51.386;12.516;2022-11-30T00:55:33;17.93;;;8.47;;
19747;SDS011;10032;51.386;12.516;2022-11-30T00:57:59;20.03;;;10.33;;
19747;SDS011;10032;51.386;12.516;2022-11-30T01:00:25;19.10;;;10.93;;
19747;SDS011;10032;51.386;12.516;2022-11-30T01:02:53;15.00;;;9.50;;
19747;SDS011;10032;51.386;12.516;2022-11-30T01:05:19;16.73;;;9.57;;
19747;SDS011;10032;51.386;12.516;2022-11-30T01:07:45;15.23;;;8.13;;
19747;SDS011;10032;51.386;12.516;2022-11-30T01:10:10;16.60;;;8.90;;
19747;SDS011;10032;51.386;12.516;2022-11-30T01:12:36;18.27;;;8.63;;
19747;SDS011;10032;51.386;12.516;2022-11-30T01:15:01;16.90;;;9.80;;
19747;SDS011;10032;51.386;12.516;2022-11-30T01:17:27;18.07;;;9.80;;
19747;SDS011;10032;51.386;12.516;2022-11-30T01:19:52;16.90;;;10.00;;
19747;SDS011;10032;51.386;12.516;2022-11-30T01:22:17;17.17;;;9.80;;
19747;SDS011;10032;51.386;12.516;2022-11-30T01:24:43;16.73;;;9.10;;
19747;SDS011;10032;51.386;12.516;2022-11-30T01:27:08;15.20;;;9.93;;
19747;SDS011;10032;51.386;12.516;2022-11-30T01:29:34;14.93;;;8.97;;
19747;SDS011;10032;51.386;12.516;2022-11-30T01:31:59;14.33;;;8.67;;
19747;SDS011;10032;51.386;12.516;2022-11-30T01:34:24;17.03;;;8.53;;
19747;SDS011;10032;51.386;12.516;2022-11-30T01:36:50;15.50;;;9.40;;
19747;SDS011;10032;51.386;12.516;2022-11-30T01:39:15;16.67;;;9.80;;
19747;SDS011;10032;51.386;12.516;2022-11-30T01:41:40;15.43;;;9.93;;
19747;SDS011;10032;51.386;12.516;2022-11-30T01:51:45;16.53;;;9.20;;
19747;SDS011;10032;51.386;12.516;2022-11-30T01:54:17;14.97;;;9.60;;
19747;SDS011;10032;51.386;12.516;2022-11-30T01:56:54;16.07;;;9.80;;
19747;SDS011;10032;51.386;12.516;2022-11-30T01:59:26;16.23;;;10.43;;
19747;SDS011;10032;51.386;12.516;2022-11-30T02:01:52;16.77;;;9.47;;
19747;SDS011;10032;51.386;12.516;2022-11-30T02:04:36;16.07;;;9.40;;
19747;SDS011;10032;51.386;12.516;2022-11-30T02:07:03;17.27;;;9.90;;
19747;SDS011;10032;51.386;12.516;2022-11-30T02:09:33;16.33;;;8.37;;
19747;SDS011;10032;51.386;12.516;2022-11-30T02:12:04;16.50;;;9.57;;
19747;SDS011;10032;51.386;12.516;2022-11-30T02:20:12;11.57;;;7.63;;
19747;SDS011;10032;51.386;12.516;2022-11-30T02:23:06;16.50;;;8.63;;
19747;SDS011;10032;51.386;12.516;2022-11-30T02:25:53;18.97;;;9.20;;
19747;SDS011;10032;51.386;12.516;2022-11-30T02:30:59;24.77;;;11.17;;
19747;SDS011;10032;51.386;12.516;2022-11-30T02:33:27;26.60;;;12.03;;
19747;SDS011;10032;51.386;12.516;2022-11-30T02:35:55;23.70;;;11.23;;
19747;SDS011;10032;51.386;12.516;2022-11-30T02:38:23;28.10;;;13.63;;
19747;SDS011;10032;51.386;12.516;2022-11-30T02:40:51;23.33;;;12.30;;
19747;SDS011;10032;51.386;12.516;2022-11-30T02:43:17;20.27;;;11.70;;
19747;SDS011;10032;51.386;12.516;2022-11-30T02:48:53;17.77;;;10.07;;
19747;SDS011;10032;51.386;12.516;2022-11-30T02:51:27;17.10;;;10.07;;
19747;SDS011;10032;51.386;12.516;2022-11-30T02:53:56;21.47;;;10.53;;
19747;SDS011;10032;51.386;12.516;2022-11-30T02:56:21;32.70;;;10.47;;
19747;SDS011;10032;51.386;12.516;2022-11-30T02:58:47;18.73;;;10.10;;
19747;SDS011;10032;51.386;12.516;2022-11-30T03:01:13;19.10;;;11.70;;
19747;SDS011;10032;51.386;12.516;2022-11-30T03:03:38;17.37;;;10.57;;
19747;SDS011;10032;51.386;12.516;2022-11-30T03:06:04;21.07;;;11.53;;
19747;SDS011;10032;51.386;12.516;2022-11-30T03:08:29;19.77;;;11.23;;
19747;SDS011;10032;51.386;12.516;2022-11-30T03:10:55;21.83;;;11.30;;
19747;SDS011;10032;51.386;12.516;2022-11-30T03:13:20;20.97;;;12.63;;
19747;SDS011;10032;51.386;12.516;2022-11-30T03:15:46;22.40;;;11.27;;
19747;SDS011;10032;51.386;12.516;2022-11-30T03:18:12;19.53;;;10.93;;
19747;SDS011;10032;51.386;12.516;2022-11-30T03:20:41;16.20;;;9.47;;
19747;SDS011;10032;51.386;12.516;2022-11-30T03:23:07;20.63;;;11.33;;
19747;SDS011;10032;51.386;12.516;2022-11-30T03:25:33;19.90;;;11.10;;
19747;SDS011;10032;51.386;12.516;2022-11-30T03:28:02;20.23;;;10.43;;
19747;SDS011;10032;51.386;12.516;2022-11-30T03:30:27;19.97;;;10.87;;
19747;SDS011;10032;51.386;12.516;2022-11-30T03:32:53;20.53;;;11.30;;
19747;SDS011;10032;51.386;12.516;2022-11-30T03:35:18;19.87;;;10.67;;
19747;SDS011;10032;51.386;12.516;2022-11-30T03:37:44;23.70;;;12.33;;
19747;SDS011;10032;51.386;12.516;2022-11-30T03:40:09;21.20;;;11.63;;
19747;SDS011;10032;51.386;12.516;2022-11-30T03:42:35;23.83;;;10.87;;
19747;SDS011;10032;51.386;12.516;2022-11-30T03:45:01;19.23;;;11.23;;
19747;SDS011;10032;51.386;12.516;2022-11-30T03:47:27;20.33;;;10.67;;
19747;SDS011;10032;51.386;12.516;2022-11-30T03:49:52;19.13;;;11.57;;
19747;SDS011;10032;51.386;12.516;2022-11-30T03:52:17;24.80;;;11.60;;
19747;SDS011;10032;51.386;12.516;2022-11-30T03:54:43;22.53;;;12.30;;
19747;SDS011;10032;51.386;12.516;2022-11-30T03:57:08;17.23;;;10.80;;
19747;SDS011;10032;51.386;12.516;2022-11-30T03:59:33;23.97;;;12.37;;
19747;SDS011;10032;51.386;12.516;2022-11-30T04:01:59;24.93;;;12.37;;
19747;SDS011;10032;51.386;12.516;2022-11-30T04:04:24;24.47;;;11.60;;
19747;SDS011;10032;51.386;12.516;2022-11-30T04:06:50;23.23;;;12.57;;
19747;SDS011;10032;51.386;12.516;2022-11-30T04:09:15;19.97;;;11.60;;
19747;SDS011;10032;51.386;12.516;2022-11-30T04:11:40;26.83;;;13.50;;
19747;SDS011;10032;51.386;12.516;2022-11-30T04:14:06;22.63;;;12.00;;
19747;SDS011;10032;51.386;12.516;2022-11-30T04:16:31;23.87;;;12.93;;
19747;SDS011;10032;51.386;12.516;2022-11-30T04:18:57;20.27;;;11.10;;
19747;SDS011;10032;51.386;12.516;2022-11-30T04:21:22;25.43;;;11.33;;
19747;SDS011;10032;51.386;12.516;2022-11-30T04:23:48;21.30;;;11.23;;
19747;SDS011;10032;51.386;12.516;2022-11-30T04:26:14;21.67;;;12.23;;
19747;SDS011;10032;51.386;12.516;2022-11-30T04:28:41;24.47;;;12.00;;
19747;SDS011;10032;51.386;12.516;2022-11-30T04:31:07;21.97;;;12.63;;
19747;SDS011;10032;51.386;12.516;2022-11-30T04:33:33;17.53;;;10.53;;
19747;SDS011;10032;51.386;12.516;2022-11-30T04:36:00;24.43;;;12.07;;
19747;SDS011;10032;51.386;12.516;2022-11-30T04:38:27;21.90;;;12.07;;
19747;SDS011;10032;51.386;12.516;2022-11-30T04:40:53;24.47;;;11.57;;
19747;SDS011;10032;51.386;12.516;2022-11-30T04:43:20;29.67;;;12.10;;
19747;SDS011;10032;51.386;12.516;2022-11-30T04:45:46;23.83;;;11.27;;
19747;SDS011;10032;51.386;12.516;2022-11-30T04:48:12;23.53;;;12.57;;
19747;SDS011;10032;51.386;12.516;2022-11-30T04:50:38;23.97;;;12.40;;
19747;SDS011;10032;51.386;12.516;2022-11-30T04:53:03;21.90;;;12.63;;
19747;SDS011;10032;51.386;12.516;2022-11-30T04:55:29;20.40;;;11.53;;
19747;SDS011;10032;51.386;12.516;2022-11-30T04:57:54;23.63;;;12.87;;
19747;SDS011;10032;51.386;12.516;2022-11-30T05:00:20;26.40;;;12.57;;
19747;SDS011;10032;51.386;12.516;2022-11-30T05:02:46;31.13;;;14.60;;
19747;SDS011;10032;51.386;12.516;2022-11-30T05:05:11;24.97;;;12.20;;
19747;SDS011;10032;51.386;12.516;2022-11-30T05:07:37;22.30;;;13.07;;
19747;SDS011;10032;51.386;12.516;2022-11-30T05:10:03;24.03;;;12.23;;
19747;SDS011;10032;51.386;12.516;2022-11-30T05:12:29;21.37;;;12.07;;
19747;SDS011;10032;51.386;12.516;2022-11-30T05:14:55;19.83;;;10.17;;
19747;SDS011;10032;51.386;12.516;2022-11-30T05:17:20;24.10;;;11.53;;
19747;SDS011;10032;51.386;12.516;2022-11-30T05:19:45;24.77;;;12.13;;
19747;SDS011;10032;51.386;12.516;2022-11-30T05:22:11;22.90;;;12.13;;
19747;SDS011;10032;51.386;12.516;2022-11-30T05:24:36;23.70;;;13.00;;
19747;SDS011;10032;51.386;12.516;2022-11-30T05:27:02;28.60;;;14.47;;
19747;SDS011;10032;51.386;12.516;2022-11-30T05:29:27;25.53;;;12.50;;
19747;SDS011;10032;51.386;12.516;2022-11-30T05:31:52;28.60;;;14.67;;
19747;SDS011;10032;51.386;12.516;2022-11-30T05:34:18;26.60;;;12.33;;
19747;SDS011;10032;51.386;12.516;2022-11-30T05:36:43;23.10;;;11.63;;
19747;SDS011;10032;51.386;12.516;2022-11-30T05:39:09;31.77;;;14.13;;
19747;SDS011;10032;51.386;12.516;2022-11-30T05:41:34;23.10;;;13.77;;
19747;SDS011;10032;51.386;12.516;2022-11-30T05:43:59;27.60;;;13.93;;
19747;SDS011;10032;51.386;12.516;2022-11-30T05:46:25;31.00;;;13.27;;
19747;SDS011;10032;51.386;12.516;2022-11-30T05:48:50;24.23;;;12.67;;
19747;SDS011;10032;51.386;12.516;2022-11-30T05:51:17;26.30;;;12.77;;
19747;SDS011;10032;51.386;12.516;2022-11-30T05:53:44;26.40;;;12.73;;
19747;SDS011;10032;51.386;12.516;2022-11-30T05:56:11;26.90;;;13.40;;
19747;SDS011;10032;51.386;12.516;2022-11-30T05:58:38;26.00;;;13.10;;
19747;SDS011;10032;51.386;12.516;2022-11-30T06:01:04;24.63;;;13.57;;
19747;SDS011;10032;51.386;12.516;2022-11-30T06:03:30;23.97;;;12.97;;
19747;SDS011;10032;51.386;12.516;2022-11-30T06:05:57;28.33;;;13.67;;
19747;SDS011;10032;51.386;12.516;2022-11-30T06:08:23;30.27;;;15.27;;
19747;SDS011;10032;51.386;12.516;2022-11-30T06:10:49;27.30;;;14.90;;
19747;SDS011;10032;51.386;12.516;2022-11-30T06:13:14;29.93;;;14.43;;
19747;SDS011;10032;51.386;12.516;2022-11-30T06:15:40;30.30;;;15.40;;
19747;SDS011;10032;51.386;12.516;2022-11-30T06:18:08;26.00;;;13.37;;
19747;SDS011;10032;51.386;12.516;2022-11-30T06:20:38;30.97;;;15.77;;
19747;SDS011;10032;51.386;12.516;2022-11-30T06:23:04;31.27;;;14.63;;
19747;SDS011;10032;51.386;12.516;2022-11-30T06:25:30;36.97;;;15.60;;
19747;SDS011;10032;51.386;12.516;2022-11-30T06:27:56;25.13;;;14.27;;
19747;SDS011;10032;51.386;12.516;2022-11-30T06:30:22;32.60;;;17.10;;
19747;SDS011;10032;51.386;12.516;2022-11-30T06:32:48;29.00;;;15.97;;
19747;SDS011;10032;51.386;12.516;2022-11-30T06:35:15;29.90;;;16.77;;
19747;SDS011;10032;51.386;12.516;2022-11-30T06:37:41;32.23;;;15.90;;
19747;SDS011;10032;51.386;12.516;2022-11-30T06:40:07;31.93;;;16.30;;
19747;SDS011;10032;51.386;12.516;2022-11-30T06:42:34;32.57;;;14.77;;
19747;SDS011;10032;51.386;12.516;2022-11-30T06:45:01;31.73;;;15.73;;
19747;SDS011;10032;51.386;12.516;2022-11-30T06:47:26;28.20;;;15.60;;
19747;SDS011;10032;51.386;12.516;2022-11-30T06:49:52;31.93;;;16.30;;
19747;SDS011;10032;51.386;12.516;2022-11-30T06:52:18;33.57;;;15.57;;
19747;SDS011;10032;51.386;12.516;2022-11-30T06:54:44;34.87;;;16.00;;
19747;SDS011;10032;51.386;12.516;2022-11-30T06:57:10;34.83;;;16.63;;
19747;SDS011;10032;51.386;12.516;2022-11-30T06:59:35;33.30;;;16.77;;
19747;SDS011;10032;51.386;12.516;2022-11-30T07:02:01;35.87;;;17.43;;
19747;SDS011;10032;51.386;12.516;2022-11-30T07:04:27;41.13;;;18.00;;
19747;SDS011;10032;51.386;12.516;2022-11-30T07:06:53;37.07;;;17.07;;
19747;SDS011;10032;51.386;12.516;2022-11-30T07:09:18;35.67;;;15.07;;
19747;SDS011;10032;51.386;12.516;2022-11-30T07:11:43;32.97;;;16.23;;
19747;SDS011;10032;51.386;12.516;2022-11-30T07:14:09;36.43;;;17.70;;
19747;SDS011;10032;51.386;12.516;2022-11-30T07:16:34;36.93;;;17.03;;
19747;SDS011;10032;51.386;12.516;2022-11-30T07:19:00;35.10;;;17.53;;
19747;SDS011;10032;51.386;12.516;2022-11-30T07:21:25;30.23;;;15.87;;
19747;SDS011;10032;51.386;12.516;2022-11-30T07:23:51;34.43;;;18.23;;
19747;SDS011;10032;51.386;12.516;2022-11-30T07:26:35;34.07;;;17.43;;
19747;SDS011;10032;51.386;12.516;2022-11-30T07:29:00;39.33;;;17.90;;
19747;SDS011;10032;51.386;12.516;2022-11-30T07:31:29;44.13;;;19.13;;
19747;SDS011;10032;51.386;12.516;2022-11-30T07:34:01;36.60;;;18.10;;
19747;SDS011;10032;51.386;12.516;2022-11-30T07:36:29;40.50;;;19.23;;
19747;SDS011;10032;51.386;12.516;2022-11-30T07:38:55;42.50;;;20.53;;
19747;SDS011;10032;51.386;12.516;2022-11-30T07:41:21;35.73;;;18.17;;
19747;SDS011;10032;51.386;12.516;2022-11-30T07:43:46;36.80;;;17.33;;
19747;SDS011;10032;51.386;12.516;2022-11-30T07:46:12;38.33;;;19.40;;
19747;SDS011;10032;51.386;12.516;2022-11-30T07:48:39;42.80;;;18.57;;
19747;SDS011;10032;51.386;12.516;2022-11-30T07:51:15;39.53;;;19.20;;
19747;SDS011;10032;51.386;12.516;2022-11-30T07:53:43;44.00;;;19.73;;
19747;SDS011;10032;51.386;12.516;2022-11-30T07:56:10;37.27;;;19.03;;
19747;SDS011;10032;51.386;12.516;2022-11-30T07:58:38;46.93;;;21.80;;
19747;SDS011;10032;51.386;12.516;2022-11-30T08:01:05;45.63;;;21.00;;
19747;SDS011;10032;51.386;12.516;2022-11-30T08:03:33;41.70;;;20.13;;
19747;SDS011;10032;51.386;12.516;2022-11-30T08:06:03;45.97;;;21.50;;
19747;SDS011;10032;51.386;12.516;2022-11-30T08:08:33;43.37;;;20.07;;
19747;SDS011;10032;51.386;12.516;2022-11-30T08:11:01;42.13;;;19.37;;
19747;SDS011;10032;51.386;12.516;2022-11-30T08:13:31;46.77;;;28.07;;
19747;SDS011;10032;51.386;12.516;2022-11-30T08:16:02;43.50;;;22.47;;
19747;SDS011;10032;51.386;12.516;2022-11-30T08:18:32;38.30;;;19.63;;
19747;SDS011;10032;51.386;12.516;2022-11-30T08:20:58;39.87;;;19.90;;
19747;SDS011;10032;51.386;12.516;2022-11-30T08:23:28;47.47;;;25.10;;
19747;SDS011;10032;51.386;12.516;2022-11-30T08:25:55;37.73;;;19.50;;
19747;SDS011;10032;51.386;12.516;2022-11-30T08:28:20;41.77;;;19.20;;
19747;SDS011;10032;51.386;12.516;2022-11-30T08:30:46;37.23;;;18.57;;
19747;SDS011;10032;51.386;12.516;2022-11-30T08:33:12;34.43;;;17.43;;
19747;SDS011;10032;51.386;12.516;2022-11-30T08:35:37;43.37;;;19.37;;
19747;SDS011;10032;51.386;12.516;2022-11-30T08:38:03;39.63;;;19.27;;
19747;SDS011;10032;51.386;12.516;2022-11-30T08:40:28;35.03;;;18.77;;
19747;SDS011;10032;51.386;12.516;2022-11-30T08:42:54;34.33;;;18.97;;
19747;SDS011;10032;51.386;12.516;2022-11-30T08:45:19;37.60;;;20.13;;
19747;SDS011;10032;51.386;12.516;2022-11-30T08:47:44;39.20;;;20.07;;
19747;SDS011;10032;51.386;12.516;2022-11-30T08:50:10;34.23;;;17.60;;
19747;SDS011;10032;51.386;12.516;2022-11-30T08:52:35;35.07;;;17.90;;
19747;SDS011;10032;51.386;12.516;2022-11-30T08:55:01;39.60;;;19.07;;
19747;SDS011;10032;51.386;12.516;2022-11-30T08:57:26;34.00;;;17.03;;
19747;SDS011;10032;51.386;12.516;2022-11-30T08:59:51;37.80;;;19.10;;
19747;SDS011;10032;51.386;12.516;2022-11-30T09:02:17;41.27;;;18.37;;
19747;SDS011;10032;51.386;12.516;2022-11-30T09:04:44;34.87;;;18.63;;
19747;SDS011;10032;51.386;12.516;2022-11-30T09:07:12;45.47;;;20.20;;
19747;SDS011;10032;51.386;12.516;2022-11-30T09:09:38;37.70;;;18.17;;
19747;SDS011;10032;51.386;12.516;2022-11-30T09:12:04;38.50;;;18.57;;
19747;SDS011;10032;51.386;12.516;2022-11-30T09:14:30;34.33;;;18.17;;
19747;SDS011;10032;51.386;12.516;2022-11-30T09:16:55;33.10;;;17.90;;
19747;SDS011;10032;51.386;12.516;2022-11-30T09:19:21;35.67;;;17.37;;
19747;SDS011;10032;51.386;12.516;2022-11-30T09:21:46;36.33;;;18.37;;
19747;SDS011;10032;51.386;12.516;2022-11-30T09:24:11;30.73;;;16.67;;
19747;SDS011;10032;51.386;12.516;2022-11-30T09:26:37;38.53;;;18.37;;
19747;SDS011;10032;51.386;12.516;2022-11-30T09:29:03;30.13;;;16.73;;
19747;SDS011;10032;51.386;12.516;2022-11-30T09:31:29;34.07;;;16.27;;
19747;SDS011;10032;51.386;12.516;2022-11-30T09:33:55;33.70;;;15.83;;
19747;SDS011;10032;51.386;12.516;2022-11-30T09:36:22;33.20;;;17.03;;
19747;SDS011;10032;51.386;12.516;2022-11-30T09:38:51;34.40;;;16.87;;
19747;SDS011;10032;51.386;12.516;2022-11-30T09:46:32;34.47;;;15.97;;
19747;SDS011;10032;51.386;12.516;2022-11-30T09:49:11;34.37;;;16.73;;
19747;SDS011;10032;51.386;12.516;2022-11-30T09:51:49;34.60;;;16.53;;
19747;SDS011;10032;51.386;12.516;2022-11-30T09:54:23;34.73;;;17.97;;
19747;SDS011;10032;51.386;12.516;2022-11-30T09:57:03;27.80;;;15.37;;
19747;SDS011;10032;51.386;12.516;2022-11-30T09:59:33;32.00;;;16.83;;
19747;SDS011;10032;51.386;12.516;2022-11-30T10:02:05;34.77;;;18.13;;
19747;SDS011;10032;51.386;12.516;2022-11-30T10:04:39;27.37;;;15.33;;
19747;SDS011;10032;51.386;12.516;2022-11-30T10:10:08;32.20;;;17.30;;
19747;SDS011;10032;51.386;12.516;2022-11-30T10:18:29;35.60;;;16.27;;
19747;SDS011;10032;51.386;12.516;2022-11-30T10:26:36;30.73;;;16.77;;
19747;SDS011;10032;51.386;12.516;2022-11-30T10:29:15;35.23;;;16.97;;
19747;SDS011;10032;51.386;12.516;2022-11-30T10:31:43;29.50;;;15.90;;
19747;SDS011;10032;51.386;12.516;2022-11-30T10:34:17;31.67;;;16.13;;
19747;SDS011;10032;51.386;12.516;2022-11-30T10:36:52;32.83;;;16.63;;
19747;SDS011;10032;51.386;12.516;2022-11-30T10:39:37;33.07;;;17.07;;
19747;SDS011;10032;51.386;12.516;2022-11-30T10:44:39;33.90;;;16.03;;
19747;SDS011;10032;51.386;12.516;2022-11-30T10:47:16;29.93;;;15.20;;
19747;SDS011;10032;51.386;12.516;2022-11-30T10:49:49;33.00;;;15.57;;
19747;SDS011;10032;51.386;12.516;2022-11-30T10:52:21;29.60;;;15.33;;
19747;SDS011;10032;51.386;12.516;2022-11-30T10:54:53;32.37;;;15.83;;
19747;SDS011;10032;51.386;12.516;2022-11-30T10:57:21;28.67;;;14.60;;
19747;SDS011;10032;51.386;12.516;2022-11-30T10:59:49;29.23;;;14.47;;
19747;SDS011;10032;51.386;12.516;2022-11-30T11:10:36;31.43;;;15.93;;
19747;SDS011;10032;51.386;12.516;2022-11-30T11:13:16;29.13;;;15.30;;
19747;SDS011;10032;51.386;12.516;2022-11-30T11:15:59;29.73;;;15.93;;
19747;SDS011;10032;51.386;12.516;2022-11-30T11:18:26;34.23;;;16.40;;
19747;SDS011;10032;51.386;12.516;2022-11-30T11:21:36;28.73;;;15.70;;
19747;SDS011;10032;51.386;12.516;2022-11-30T11:23:44;26.97;;;14.70;;
19747;SDS011;10032;51.386;12.516;2022-11-30T11:26:44;32.03;;;15.77;;
19747;SDS011;10032;51.386;12.516;2022-11-30T11:29:18;28.87;;;15.07;;
19747;SDS011;10032;51.386;12.516;2022-11-30T11:32:04;29.43;;;14.53;;
19747;SDS011;10032;51.386;12.516;2022-11-30T11:34:40;33.60;;;16.30;;
19747;SDS011;10032;51.386;12.516;2022-11-30T11:40:14;33.00;;;17.50;;
19747;SDS011;10032;51.386;12.516;2022-11-30T11:42:41;29.93;;;14.97;;
19747;SDS011;10032;51.386;12.516;2022-11-30T11:45:15;31.13;;;16.60;;
19747;SDS011;10032;51.386;12.516;2022-11-30T11:47:44;28.43;;;16.67;;
19747;SDS011;10032;51.386;12.516;2022-11-30T11:53:21;32.30;;;16.37;;
19747;SDS011;10032;51.386;12.516;2022-11-30T11:56:02;27.63;;;14.53;;
19747;SDS011;10032;51.386;12.516;2022-11-30T11:58:56;30.97;;;14.67;;
19747;SDS011;10032;51.386;12.516;2022-11-30T12:06:58;29.20;;;15.07;;
19747;SDS011;10032;51.386;12.516;2022-11-30T12:09:28;32.70;;;15.40;;
19747;SDS011;10032;51.386;12.516;2022-11-30T12:11:59;28.50;;;14.90;;
19747;SDS011;10032;51.386;12.516;2022-11-30T12:14:24;28.70;;;13.97;;
19747;SDS011;10032;51.386;12.516;2022-11-30T12:16:56;25.30;;;14.37;;
19747;SDS011;10032;51.386;12.516;2022-11-30T12:20:34;28.93;;;15.43;;
19747;SDS011;10032;51.386;12.516;2022-11-30T12:25:41;31.10;;;15.30;;
19747;SDS011;10032;51.386;12.516;2022-11-30T12:41:51;29.07;;;14.63;;
19747;SDS011;10032;51.386;12.516;2022-11-30T13:03:46;26.20;;;12.90;;
19747;SDS011;10032;51.386;12.516;2022-11-30T13:06:23;27.77;;;13.20;;
19747;SDS011;10032;51.386;12.516;2022-11-30T13:09:09;27.97;;;13.67;;
19747;SDS011;10032;51.386;12.516;2022-11-30T13:11:46;27.10;;;14.40;;
19747;SDS011;10032;51.386;12.516;2022-11-30T13:14:23;23.13;;;13.13;;
19747;SDS011;10032;51.386;12.516;2022-11-30T13:16:51;26.93;;;12.80;;
19747;SDS011;10032;51.386;12.516;2022-11-30T13:27:49;24.03;;;13.27;;
19747;SDS011;10032;51.386;12.516;2022-11-30T13:35:58;24.90;;;13.00;;
19747;SDS011;10032;51.386;12.516;2022-11-30T13:38:24;21.00;;;12.17;;
19747;SDS011;10032;51.386;12.516;2022-11-30T13:43:26;21.20;;;12.00;;
19747;SDS011;10032;51.386;12.516;2022-11-30T13:46:13;26.23;;;14.10;;
19747;SDS011;10032;51.386;12.516;2022-11-30T13:48:43;22.70;;;11.83;;
19747;SDS011;10032;51.386;12.516;2022-11-30T13:51:10;22.27;;;11.93;;
19747;SDS011;10032;51.386;12.516;2022-11-30T13:53:36;24.03;;;13.00;;
19747;SDS011;10032;51.386;12.516;2022-11-30T13:56:30;24.43;;;12.60;;
19747;SDS011;10032;51.386;12.516;2022-11-30T13:59:44;26.77;;;13.93;;
19747;SDS011;10032;51.386;12.516;2022-11-30T14:01:47;25.43;;;14.30;;
19747;SDS011;10032;51.386;12.516;2022-11-30T14:09:13;22.40;;;12.90;;
19747;SDS011;10032;51.386;12.516;2022-11-30T14:11:43;23.50;;;12.60;;
19747;SDS011;10032;51.386;12.516;2022-11-30T14:17:09;23.40;;;13.03;;
19747;SDS011;10032;51.386;12.516;2022-11-30T14:19:37;23.87;;;13.13;;
19747;SDS011;10032;51.386;12.516;2022-11-30T14:22:02;23.57;;;12.77;;
19747;SDS011;10032;51.386;12.516;2022-11-30T14:24:34;25.67;;;14.17;;
19747;SDS011;10032;51.386;12.516;2022-11-30T14:27:00;22.60;;;12.00;;
19747;SDS011;10032;51.386;12.516;2022-11-30T14:29:27;23.17;;;13.03;;
19747;SDS011;10032;51.386;12.516;2022-11-30T14:35:06;22.10;;;13.47;;
19747;SDS011;10032;51.386;12.516;2022-11-30T14:37:39;22.33;;;13.13;;
19747;SDS011;10032;51.386;12.516;2022-11-30T14:40:13;22.13;;;12.20;;
19747;SDS011;10032;51.386;12.516;2022-11-30T14:42:45;23.47;;;13.20;;
19747;SDS011;10032;51.386;12.516;2022-11-30T14:47:52;18.10;;;11.50;;
19747;SDS011;10032;51.386;12.516;2022-11-30T14:50:28;24.47;;;13.47;;
19747;SDS011;10032;51.386;12.516;2022-11-30T14:55:50;21.53;;;12.93;;
19747;SDS011;10032;51.386;12.516;2022-11-30T15:00:58;24.63;;;14.20;;
19747;SDS011;10032;51.386;12.516;2022-11-30T15:03:24;22.97;;;13.67;;
19747;SDS011;10032;51.386;12.516;2022-11-30T15:05:56;31.43;;;17.57;;
19747;SDS011;10032;51.386;12.516;2022-11-30T15:08:24;27.77;;;15.43;;
19747;SDS011;10032;51.386;12.516;2022-11-30T15:11:06;27.43;;;14.83;;
19747;SDS011;10032;51.386;12.516;2022-11-30T15:13:42;22.23;;;11.80;;
19747;SDS011;10032;51.386;12.516;2022-11-30T15:16:20;22.73;;;13.03;;
19747;SDS011;10032;51.386;12.516;2022-11-30T15:18:55;23.83;;;13.63;;
19747;SDS011;10032;51.386;12.516;2022-11-30T15:21:22;22.83;;;12.77;;
19747;SDS011;10032;51.386;12.516;2022-11-30T15:23:50;22.60;;;13.23;;
19747;SDS011;10032;51.386;12.516;2022-11-30T15:29:13;21.23;;;12.60;;
19747;SDS011;10032;51.386;12.516;2022-11-30T15:31:47;23.50;;;12.13;;
19747;SDS011;10032;51.386;12.516;2022-11-30T15:34:35;27.00;;;14.23;;
19747;SDS011;10032;51.386;12.516;2022-11-30T15:37:32;24.63;;;14.50;;
19747;SDS011;10032;51.386;12.516;2022-11-30T15:39:59;24.57;;;13.63;;
19747;SDS011;10032;51.386;12.516;2022-11-30T15:42:31;29.67;;;15.47;;
19747;SDS011;10032;51.386;12.516;2022-11-30T15:47:49;25.00;;;15.07;;
19747;SDS011;10032;51.386;12.516;2022-11-30T15:52:50;29.57;;;15.40;;
19747;SDS011;10032;51.386;12.516;2022-11-30T16:06:19;23.97;;;13.10;;
19747;SDS011;10032;51.386;12.516;2022-11-30T16:08:46;27.17;;;14.73;;
19747;SDS011;10032;51.386;12.516;2022-11-30T16:11:12;29.03;;;14.70;;
19747;SDS011;10032;51.386;12.516;2022-11-30T16:13:38;23.47;;;13.33;;
19747;SDS011;10032;51.386;12.516;2022-11-30T16:16:09;25.23;;;13.67;;
19747;SDS011;10032;51.386;12.516;2022-11-30T16:18:35;25.00;;;13.90;;
19747;SDS011;10032;51.386;12.516;2022-11-30T16:21:01;24.93;;;14.03;;
19747;SDS011;10032;51.386;12.516;2022-11-30T16:23:27;28.70;;;15.70;;
19747;SDS011;10032;51.386;12.516;2022-11-30T16:25:53;28.47;;;14.20;;
19747;SDS011;10032;51.386;12.516;2022-11-30T16:28:19;33.53;;;15.30;;
19747;SDS011;10032;51.386;12.516;2022-11-30T16:30:45;35.63;;;17.23;;
19747;SDS011;10032;51.386;12.516;2022-11-30T16:33:15;31.87;;;15.73;;
19747;SDS011;10032;51.386;12.516;2022-11-30T16:36:02;37.87;;;18.33;;
19747;SDS011;10032;51.386;12.516;2022-11-30T16:38:31;31.93;;;17.30;;
19747;SDS011;10032;51.386;12.516;2022-11-30T16:43:48;36.97;;;17.87;;
19747;SDS011;10032;51.386;12.516;2022-11-30T16:46:28;32.87;;;17.50;;
19747;SDS011;10032;51.386;12.516;2022-11-30T16:48:54;32.87;;;16.47;;
19747;SDS011;10032;51.386;12.516;2022-11-30T16:51:21;29.33;;;16.23;;
19747;SDS011;10032;51.386;12.516;2022-11-30T16:53:49;37.10;;;17.03;;
19747;SDS011;10032;51.386;12.516;2022-11-30T16:56:15;29.60;;;15.90;;